sensor_id;sensor_type;location;lat;lon;timestamp;temperature;humidity
75994;DHT22;64680;53.800;9.988;2023-11-19T00:00:09;4.20;99.90
75994;DHT22;64680;53.800;9.988;2023-11-19T00:02:39;4.20;99.90
75994;DHT22;64680;53.800;9.988;2023-11-19T00:05:05;4.30;99.90
75994;DHT22;64680;53.800;9.988;2023-11-19T00:07:37;4.20;99.90
75994;DHT22;64680;53.800;9.988;2023-11-19T00:10:10;4.20;99.90
75994;DHT22;64680;53.800;9.988;2023-11-19T00:12:41;4.20;99.90
75994;DHT22;64680;53.800;9.988;2023-11-19T00:15:07;4.20;99.90
75994;DHT22;64680;53.800;9.988;2023-11-19T00:17:45;4.20;99.90
75994;DHT22;64680;53.800;9.988;2023-11-19T00:20:18;4.20;99.90
75994;DHT22;64680;53.800;9.988;2023-11-19T00:22:44;4.30;99.90
75994;DHT22;64680;53.800;9.988;2023-11-19T00:25:13;4.30;99.90
75994;DHT22;64680;53.800;9.988;2023-11-19T00:27:39;4.30;99.90
75994;DHT22;64680;53.800;9.988;2023-11-19T00:30:05;4.30;99.90
75994;DHT22;64680;53.800;9.988;2023-11-19T00:32:32;4.30;99.90
75994;DHT22;64680;53.800;9.988;2023-11-19T00:34:58;4.40;99.90
75994;DHT22;64680;53.800;9.988;2023-11-19T00:37:23;4.40;99.90
75994;DHT22;64680;53.800;9.988;2023-11-19T00:39:49;4.30;99.90
75994;DHT22;64680;53.800;9.988;2023-11-19T00:42:15;4.40;99.90
75994;DHT22;64680;53.800;9.988;2023-11-19T00:44:40;4.40;99.90
75994;DHT22;64680;53.800;9.988;2023-11-19T00:47:07;4.40;99.90
75994;DHT22;64680;53.800;9.988;2023-11-19T00:49:32;4.30;99.90
75994;DHT22;64680;53.800;9.988;2023-11-19T00:51:58;4.40;99.90
75994;DHT22;64680;53.800;9.988;2023-11-19T00:54:24;4.40;99.90
75994;DHT22;64680;53.800;9.988;2023-11-19T00:56:52;4.40;99.90
75994;DHT22;64680;53.800;9.988;2023-11-19T00:59:18;4.40;99.90
75994;DHT22;64680;53.800;9.988;2023-11-19T01:01:43;4.40;99.90
75994;DHT22;64680;53.800;9.988;2023-11-19T01:04:09;4.40;99.90
75994;DHT22;64680;53.800;9.988;2023-11-19T01:06:35;4.40;99.90
75994;DHT22;64680;53.800;9.988;2023-11-19T01:09:00;4.50;99.90
75994;DHT22;64680;53.800;9.988;2023-11-19T01:11:26;4.50;99.90
75994;DHT22;64680;53.800;9.988;2023-11-19T01:13:52;4.50;99.90
75994;DHT22;64680;53.800;9.988;2023-11-19T01:16:18;4.50;99.90
75994;DHT22;64680;53.800;9.988;2023-11-19T01:18:44;4.50;99.90
75994;DHT22;64680;53.800;9.988;2023-11-19T01:21:10;4.50;99.90
75994;DHT22;64680;53.800;9.988;2023-11-19T01:23:37;4.50;99.90
75994;DHT22;64680;53.800;9.988;2023-11-19T01:26:02;4.50;99.90
75994;DHT22;64680;53.800;9.988;2023-11-19T01:28:28;4.50;99.90
75994;DHT22;64680;53.800;9.988;2023-11-19T01:30:54;4.50;99.90
75994;DHT22;64680;53.800;9.988;2023-11-19T01:33:20;4.50;99.90
75994;DHT22;64680;53.800;9.988;2023-11-19T01:35:46;4.50;99.90
75994;DHT22;64680;53.800;9.988;2023-11-19T01:38:12;4.50;99.90
75994;DHT22;64680;53.800;9.988;2023-11-19T01:40:38;4.50;99.90
75994;DHT22;64680;53.800;9.988;2023-11-19T01:43:03;4.50;99.90
75994;DHT22;64680;53.800;9.988;2023-11-19T01:45:30;4.50;99.90
75994;DHT22;64680;53.800;9.988;2023-11-19T01:48:02;4.50;99.90
75994;DHT22;64680;53.800;9.988;2023-11-19T01:50:30;4.60;99.90
75994;DHT22;64680;53.800;9.988;2023-11-19T01:52:57;4.60;99.90
75994;DHT22;64680;53.800;9.988;2023-11-19T01:55:24;4.60;99.90
75994;DHT22;64680;53.800;9.988;2023-11-19T01:57:51;4.60;99.90
75994;DHT22;64680;53.800;9.988;2023-11-19T02:00:18;4.60;99.90
75994;DHT22;64680;53.800;9.988;2023-11-19T02:02:46;4.60;99.90
75994;DHT22;64680;53.800;9.988;2023-11-19T02:05:12;4.60;99.90
75994;DHT22;64680;53.800;9.988;2023-11-19T02:07:38;4.60;99.90
75994;DHT22;64680;53.800;9.988;2023-11-19T02:10:05;4.60;99.90
75994;DHT22;64680;53.800;9.988;2023-11-19T02:12:31;4.60;99.90
75994;DHT22;64680;53.800;9.988;2023-11-19T02:15:01;4.60;99.90
75994;DHT22;64680;53.800;9.988;2023-11-19T02:17:31;4.60;99.90
75994;DHT22;64680;53.800;9.988;2023-11-19T02:19:57;4.60;99.90
75994;DHT22;64680;53.800;9.988;2023-11-19T02:22:23;4.60;99.90
75994;DHT22;64680;53.800;9.988;2023-11-19T02:24:54;4.60;99.90
75994;DHT22;64680;53.800;9.988;2023-11-19T02:28:00;4.60;99.90
75994;DHT22;64680;53.800;9.988;2023-11-19T02:30:26;4.60;99.90
75994;DHT22;64680;53.800;9.988;2023-11-19T02:32:54;4.60;99.90
75994;DHT22;64680;53.800;9.988;2023-11-19T02:35:23;4.60;99.90
75994;DHT22;64680;53.800;9.988;2023-11-19T02:37:48;4.70;99.90
75994;DHT22;64680;53.800;9.988;2023-11-19T02:40:14;4.60;99.90
75994;DHT22;64680;53.800;9.988;2023-11-19T02:42:40;4.60;99.90
75994;DHT22;64680;53.800;9.988;2023-11-19T02:45:06;4.70;99.90
75994;DHT22;64680;53.800;9.988;2023-11-19T02:47:33;4.70;99.90
75994;DHT22;64680;53.800;9.988;2023-11-19T02:49:59;4.70;99.90
75994;DHT22;64680;53.800;9.988;2023-11-19T02:52:25;4.70;99.90
75994;DHT22;64680;53.800;9.988;2023-11-19T02:54:51;4.70;99.90
75994;DHT22;64680;53.800;9.988;2023-11-19T02:57:18;4.70;99.90
75994;DHT22;64680;53.800;9.988;2023-11-19T02:59:46;4.70;99.90
75994;DHT22;64680;53.800;9.988;2023-11-19T03:02:12;4.70;99.90
75994;DHT22;64680;53.800;9.988;2023-11-19T03:04:38;4.70;99.90
75994;DHT22;64680;53.800;9.988;2023-11-19T03:07:06;4.70;99.90
75994;DHT22;64680;53.800;9.988;2023-11-19T03:09:33;4.70;99.90
75994;DHT22;64680;53.800;9.988;2023-11-19T03:11:59;4.70;99.90
75994;DHT22;64680;53.800;9.988;2023-11-19T03:14:24;4.80;99.90
75994;DHT22;64680;53.800;9.988;2023-11-19T03:16:50;4.80;99.90
75994;DHT22;64680;53.800;9.988;2023-11-19T03:19:16;4.80;99.90
75994;DHT22;64680;53.800;9.988;2023-11-19T03:21:41;4.80;99.90
75994;DHT22;64680;53.800;9.988;2023-11-19T03:24:07;4.80;99.90
75994;DHT22;64680;53.800;9.988;2023-11-19T03:26:34;4.80;99.90
75994;DHT22;64680;53.800;9.988;2023-11-19T03:28:59;4.80;99.90
75994;DHT22;64680;53.800;9.988;2023-11-19T03:31:26;4.80;99.90
75994;DHT22;64680;53.800;9.988;2023-11-19T03:33:51;4.80;99.90
75994;DHT22;64680;53.800;9.988;2023-11-19T03:36:17;4.90;99.90
75994;DHT22;64680;53.800;9.988;2023-11-19T03:38:42;4.90;99.90
75994;DHT22;64680;53.800;9.988;2023-11-19T03:41:15;4.90;99.90
75994;DHT22;64680;53.800;9.988;2023-11-19T03:43:41;4.90;99.90
75994;DHT22;64680;53.800;9.988;2023-11-19T03:46:20;4.90;99.90
75994;DHT22;64680;53.800;9.988;2023-11-19T03:48:47;5.00;99.90
75994;DHT22;64680;53.800;9.988;2023-11-19T03:51:13;5.00;99.90
75994;DHT22;64680;53.800;9.988;2023-11-19T03:53:45;5.00;99.90
75994;DHT22;64680;53.800;9.988;2023-11-19T03:56:13;5.10;99.90
75994;DHT22;64680;53.800;9.988;2023-11-19T03:58:39;5.00;99.90
75994;DHT22;64680;53.800;9.988;2023-11-19T04:01:05;5.10;99.90
75994;DHT22;64680;53.800;9.988;2023-11-19T04:03:31;5.10;99.90
75994;DHT22;64680;53.800;9.988;2023-11-19T04:05:57;5.10;99.90
75994;DHT22;64680;53.800;9.988;2023-11-19T04:08:23;5.20;99.90
75994;DHT22;64680;53.800;9.988;2023-11-19T04:10:49;5.20;99.90
75994;DHT22;64680;53.800;9.988;2023-11-19T04:13:15;5.20;99.90
75994;DHT22;64680;53.800;9.988;2023-11-19T04:15:41;5.20;99.90
75994;DHT22;64680;53.800;9.988;2023-11-19T04:18:06;5.20;99.90
75994;DHT22;64680;53.800;9.988;2023-11-19T04:20:32;5.30;99.90
75994;DHT22;64680;53.800;9.988;2023-11-19T04:22:58;5.30;99.90
75994;DHT22;64680;53.800;9.988;2023-11-19T04:25:26;5.40;99.90
75994;DHT22;64680;53.800;9.988;2023-11-19T04:27:51;5.40;99.90
75994;DHT22;64680;53.800;9.988;2023-11-19T04:30:17;5.50;99.90
75994;DHT22;64680;53.800;9.988;2023-11-19T04:32:44;5.50;99.90
75994;DHT22;64680;53.800;9.988;2023-11-19T04:35:09;5.60;99.90
75994;DHT22;64680;53.800;9.988;2023-11-19T04:37:36;5.70;99.90
75994;DHT22;64680;53.800;9.988;2023-11-19T04:40:03;5.70;99.90
75994;DHT22;64680;53.800;9.988;2023-11-19T04:42:28;5.80;99.90
75994;DHT22;64680;53.800;9.988;2023-11-19T04:44:55;5.90;99.90
75994;DHT22;64680;53.800;9.988;2023-11-19T04:47:21;6.00;99.90
75994;DHT22;64680;53.800;9.988;2023-11-19T04:49:47;6.00;99.90
75994;DHT22;64680;53.800;9.988;2023-11-19T04:52:12;6.10;99.90
75994;DHT22;64680;53.800;9.988;2023-11-19T04:54:42;6.10;99.90
75994;DHT22;64680;53.800;9.988;2023-11-19T04:57:08;6.10;99.90
75994;DHT22;64680;53.800;9.988;2023-11-19T04:59:37;6.20;99.90
75994;DHT22;64680;53.800;9.988;2023-11-19T05:02:03;6.30;99.90
75994;DHT22;64680;53.800;9.988;2023-11-19T05:04:29;6.40;99.90
75994;DHT22;64680;53.800;9.988;2023-11-19T05:06:55;6.40;99.90
75994;DHT22;64680;53.800;9.988;2023-11-19T05:09:21;6.40;99.90
75994;DHT22;64680;53.800;9.988;2023-11-19T05:11:46;6.40;99.90
75994;DHT22;64680;53.800;9.988;2023-11-19T05:14:12;6.50;99.90
75994;DHT22;64680;53.800;9.988;2023-11-19T05:16:40;6.50;99.90
75994;DHT22;64680;53.800;9.988;2023-11-19T05:19:08;6.60;99.90
75994;DHT22;64680;53.800;9.988;2023-11-19T05:21:34;6.70;99.90
75994;DHT22;64680;53.800;9.988;2023-11-19T05:24:02;6.70;99.90
75994;DHT22;64680;53.800;9.988;2023-11-19T05:26:30;6.80;99.90
75994;DHT22;64680;53.800;9.988;2023-11-19T05:28:55;6.80;99.90
75994;DHT22;64680;53.800;9.988;2023-11-19T05:31:21;6.90;99.90
75994;DHT22;64680;53.800;9.988;2023-11-19T05:33:47;6.90;99.90
75994;DHT22;64680;53.800;9.988;2023-11-19T05:36:13;6.90;99.90
75994;DHT22;64680;53.800;9.988;2023-11-19T05:38:39;7.00;99.90
75994;DHT22;64680;53.800;9.988;2023-11-19T05:41:05;7.00;99.90
75994;DHT22;64680;53.800;9.988;2023-11-19T05:43:31;7.10;99.90
75994;DHT22;64680;53.800;9.988;2023-11-19T05:45:57;7.10;99.90
75994;DHT22;64680;53.800;9.988;2023-11-19T05:48:22;7.10;99.90
75994;DHT22;64680;53.800;9.988;2023-11-19T05:50:48;7.20;99.90
75994;DHT22;64680;53.800;9.988;2023-11-19T05:53:15;7.20;99.90
75994;DHT22;64680;53.800;9.988;2023-11-19T05:55:41;7.30;99.90
75994;DHT22;64680;53.800;9.988;2023-11-19T05:58:21;7.40;99.90
75994;DHT22;64680;53.800;9.988;2023-11-19T06:00:47;7.40;99.90
75994;DHT22;64680;53.800;9.988;2023-11-19T06:03:13;7.40;99.90
75994;DHT22;64680;53.800;9.988;2023-11-19T06:05:38;7.40;99.90
75994;DHT22;64680;53.800;9.988;2023-11-19T06:08:04;7.40;99.90
75994;DHT22;64680;53.800;9.988;2023-11-19T06:10:32;7.50;99.90
75994;DHT22;64680;53.800;9.988;2023-11-19T06:12:58;7.60;99.90
75994;DHT22;64680;53.800;9.988;2023-11-19T06:15:28;7.70;99.90
75994;DHT22;64680;53.800;9.988;2023-11-19T06:17:54;7.70;99.90
75994;DHT22;64680;53.800;9.988;2023-11-19T06:20:26;7.70;99.90
75994;DHT22;64680;53.800;9.988;2023-11-19T06:22:53;7.80;99.90
75994;DHT22;64680;53.800;9.988;2023-11-19T06:25:19;7.80;99.90
75994;DHT22;64680;53.800;9.988;2023-11-19T06:27:45;7.80;99.90
75994;DHT22;64680;53.800;9.988;2023-11-19T06:30:10;7.80;99.90
75994;DHT22;64680;53.800;9.988;2023-11-19T06:32:37;7.90;99.90
75994;DHT22;64680;53.800;9.988;2023-11-19T06:35:03;7.90;99.90
75994;DHT22;64680;53.800;9.988;2023-11-19T06:37:30;7.90;99.90
75994;DHT22;64680;53.800;9.988;2023-11-19T06:39:55;7.90;99.90
75994;DHT22;64680;53.800;9.988;2023-11-19T06:42:21;8.00;99.90
75994;DHT22;64680;53.800;9.988;2023-11-19T06:44:47;8.10;99.90
75994;DHT22;64680;53.800;9.988;2023-11-19T06:47:12;8.20;99.90
75994;DHT22;64680;53.800;9.988;2023-11-19T06:49:38;8.30;99.90
75994;DHT22;64680;53.800;9.988;2023-11-19T06:52:04;8.40;99.90
75994;DHT22;64680;53.800;9.988;2023-11-19T06:54:30;8.60;99.90
75994;DHT22;64680;53.800;9.988;2023-11-19T06:56:56;8.70;99.90
75994;DHT22;64680;53.800;9.988;2023-11-19T06:59:23;8.90;99.90
75994;DHT22;64680;53.800;9.988;2023-11-19T07:01:48;9.00;99.90
75994;DHT22;64680;53.800;9.988;2023-11-19T07:04:14;9.00;99.90
75994;DHT22;64680;53.800;9.988;2023-11-19T07:06:39;9.10;99.90
75994;DHT22;64680;53.800;9.988;2023-11-19T07:09:09;9.30;99.90
75994;DHT22;64680;53.800;9.988;2023-11-19T07:11:39;9.40;99.90
75994;DHT22;64680;53.800;9.988;2023-11-19T07:14:05;9.40;99.90
75994;DHT22;64680;53.800;9.988;2023-11-19T07:16:34;9.40;99.90
75994;DHT22;64680;53.800;9.988;2023-11-19T07:19:03;9.50;99.90
75994;DHT22;64680;53.800;9.988;2023-11-19T07:21:29;9.50;99.90
75994;DHT22;64680;53.800;9.988;2023-11-19T07:23:55;9.60;99.90
75994;DHT22;64680;53.800;9.988;2023-11-19T07:26:21;9.70;99.90
75994;DHT22;64680;53.800;9.988;2023-11-19T07:28:47;9.70;99.90
75994;DHT22;64680;53.800;9.988;2023-11-19T07:31:13;9.80;99.90
75994;DHT22;64680;53.800;9.988;2023-11-19T07:33:40;9.70;99.90
75994;DHT22;64680;53.800;9.988;2023-11-19T07:36:08;9.80;99.90
75994;DHT22;64680;53.800;9.988;2023-11-19T07:38:34;9.80;99.90
75994;DHT22;64680;53.800;9.988;2023-11-19T07:41:00;9.80;99.90
75994;DHT22;64680;53.800;9.988;2023-11-19T07:43:26;9.90;99.90
75994;DHT22;64680;53.800;9.988;2023-11-19T07:45:51;9.90;99.90
75994;DHT22;64680;53.800;9.988;2023-11-19T07:48:17;9.90;99.90
75994;DHT22;64680;53.800;9.988;2023-11-19T07:50:54;9.90;99.90
75994;DHT22;64680;53.800;9.988;2023-11-19T07:53:20;10.00;99.90
75994;DHT22;64680;53.800;9.988;2023-11-19T07:55:46;10.00;99.90
75994;DHT22;64680;53.800;9.988;2023-11-19T07:58:12;10.00;99.90
75994;DHT22;64680;53.800;9.988;2023-11-19T08:00:38;10.00;99.90
75994;DHT22;64680;53.800;9.988;2023-11-19T08:03:04;10.00;99.90
75994;DHT22;64680;53.800;9.988;2023-11-19T08:05:31;10.00;99.90
75994;DHT22;64680;53.800;9.988;2023-11-19T08:07:56;10.00;99.90
75994;DHT22;64680;53.800;9.988;2023-11-19T08:10:22;10.10;99.90
75994;DHT22;64680;53.800;9.988;2023-11-19T08:12:48;10.10;99.90
75994;DHT22;64680;53.800;9.988;2023-11-19T08:15:14;10.10;99.90
75994;DHT22;64680;53.800;9.988;2023-11-19T08:17:41;10.10;99.90
75994;DHT22;64680;53.800;9.988;2023-11-19T08:20:08;10.10;99.90
75994;DHT22;64680;53.800;9.988;2023-11-19T08:22:37;10.10;99.90
75994;DHT22;64680;53.800;9.988;2023-11-19T08:25:07;10.10;99.90
75994;DHT22;64680;53.800;9.988;2023-11-19T08:27:33;10.10;99.90
75994;DHT22;64680;53.800;9.988;2023-11-19T08:29:58;10.10;99.90
75994;DHT22;64680;53.800;9.988;2023-11-19T08:32:27;10.20;99.90
75994;DHT22;64680;53.800;9.988;2023-11-19T08:34:53;10.20;99.90
75994;DHT22;64680;53.800;9.988;2023-11-19T08:37:19;10.20;99.90
75994;DHT22;64680;53.800;9.988;2023-11-19T08:39:50;10.20;99.90
75994;DHT22;64680;53.800;9.988;2023-11-19T08:42:16;10.30;99.90
75994;DHT22;64680;53.800;9.988;2023-11-19T08:44:43;10.30;99.90
75994;DHT22;64680;53.800;9.988;2023-11-19T08:47:10;10.30;99.90
75994;DHT22;64680;53.800;9.988;2023-11-19T08:49:36;10.30;99.90
75994;DHT22;64680;53.800;9.988;2023-11-19T08:52:02;10.30;99.90
75994;DHT22;64680;53.800;9.988;2023-11-19T08:54:27;10.40;99.90
75994;DHT22;64680;53.800;9.988;2023-11-19T08:56:53;10.40;99.90
75994;DHT22;64680;53.800;9.988;2023-11-19T08:59:19;10.40;99.90
75994;DHT22;64680;53.800;9.988;2023-11-19T09:01:44;10.40;99.20
75994;DHT22;64680;53.800;9.988;2023-11-19T09:04:10;10.50;97.60
75994;DHT22;64680;53.800;9.988;2023-11-19T09:06:36;10.40;96.50
75994;DHT22;64680;53.800;9.988;2023-11-19T09:09:02;10.40;98.40
75994;DHT22;64680;53.800;9.988;2023-11-19T09:11:31;10.40;98.50
75994;DHT22;64680;53.800;9.988;2023-11-19T09:13:57;10.40;97.30
75994;DHT22;64680;53.800;9.988;2023-11-19T09:16:23;10.40;97.50
75994;DHT22;64680;53.800;9.988;2023-11-19T09:18:49;10.30;98.40
75994;DHT22;64680;53.800;9.988;2023-11-19T09:21:15;10.40;96.40
75994;DHT22;64680;53.800;9.988;2023-11-19T09:23:41;10.40;96.80
75994;DHT22;64680;53.800;9.988;2023-11-19T09:26:08;10.40;95.80
75994;DHT22;64680;53.800;9.988;2023-11-19T09:28:35;10.40;96.40
75994;DHT22;64680;53.800;9.988;2023-11-19T09:31:01;10.40;97.20
75994;DHT22;64680;53.800;9.988;2023-11-19T09:33:30;10.20;99.00
75994;DHT22;64680;53.800;9.988;2023-11-19T09:35:55;10.20;99.90
75994;DHT22;64680;53.800;9.988;2023-11-19T09:38:21;10.20;99.90
75994;DHT22;64680;53.800;9.988;2023-11-19T09:40:46;10.20;99.90
75994;DHT22;64680;53.800;9.988;2023-11-19T09:43:14;10.20;99.90
75994;DHT22;64680;53.800;9.988;2023-11-19T09:45:50;10.20;99.90
75994;DHT22;64680;53.800;9.988;2023-11-19T09:48:19;10.30;99.90
75994;DHT22;64680;53.800;9.988;2023-11-19T09:50:48;10.20;99.90
75994;DHT22;64680;53.800;9.988;2023-11-19T09:53:15;10.30;99.90
75994;DHT22;64680;53.800;9.988;2023-11-19T09:55:41;10.20;99.90
75994;DHT22;64680;53.800;9.988;2023-11-19T09:58:07;10.20;99.90
75994;DHT22;64680;53.800;9.988;2023-11-19T10:00:33;10.30;99.90
75994;DHT22;64680;53.800;9.988;2023-11-19T10:03:00;10.30;99.90
75994;DHT22;64680;53.800;9.988;2023-11-19T10:05:27;10.30;99.90
75994;DHT22;64680;53.800;9.988;2023-11-19T10:07:53;10.40;99.90
75994;DHT22;64680;53.800;9.988;2023-11-19T10:10:21;10.40;99.40
75994;DHT22;64680;53.800;9.988;2023-11-19T10:12:46;10.40;98.70
75994;DHT22;64680;53.800;9.988;2023-11-19T10:15:19;10.30;99.90
75994;DHT22;64680;53.800;9.988;2023-11-19T10:17:45;10.30;99.90
75994;DHT22;64680;53.800;9.988;2023-11-19T10:20:11;10.20;99.90
75994;DHT22;64680;53.800;9.988;2023-11-19T10:22:39;10.20;99.90
75994;DHT22;64680;53.800;9.988;2023-11-19T10:25:20;10.20;99.90
75994;DHT22;64680;53.800;9.988;2023-11-19T10:27:46;10.20;99.90
75994;DHT22;64680;53.800;9.988;2023-11-19T10:30:12;10.20;99.90
75994;DHT22;64680;53.800;9.988;2023-11-19T10:32:38;10.20;99.90
75994;DHT22;64680;53.800;9.988;2023-11-19T10:35:06;10.10;99.90
75994;DHT22;64680;53.800;9.988;2023-11-19T10:37:32;10.10;99.90
75994;DHT22;64680;53.800;9.988;2023-11-19T10:40:00;10.10;99.90
75994;DHT22;64680;53.800;9.988;2023-11-19T10:42:26;10.20;99.90
75994;DHT22;64680;53.800;9.988;2023-11-19T10:44:51;10.20;99.90
75994;DHT22;64680;53.800;9.988;2023-11-19T10:47:19;10.20;99.90
75994;DHT22;64680;53.800;9.988;2023-11-19T10:49:46;10.30;99.90
75994;DHT22;64680;53.800;9.988;2023-11-19T10:52:15;10.30;99.90
75994;DHT22;64680;53.800;9.988;2023-11-19T10:54:44;10.30;99.90
75994;DHT22;64680;53.800;9.988;2023-11-19T10:57:17;10.20;99.90
75994;DHT22;64680;53.800;9.988;2023-11-19T10:59:45;10.20;99.90
75994;DHT22;64680;53.800;9.988;2023-11-19T11:02:14;10.20;99.90
75994;DHT22;64680;53.800;9.988;2023-11-19T11:04:41;10.10;99.90
75994;DHT22;64680;53.800;9.988;2023-11-19T11:07:09;10.10;99.90
75994;DHT22;64680;53.800;9.988;2023-11-19T11:09:35;10.10;99.90
75994;DHT22;64680;53.800;9.988;2023-11-19T11:12:01;10.10;99.90
75994;DHT22;64680;53.800;9.988;2023-11-19T11:14:27;10.10;99.90
75994;DHT22;64680;53.800;9.988;2023-11-19T11:16:53;10.10;99.90
75994;DHT22;64680;53.800;9.988;2023-11-19T11:19:19;10.10;99.90
75994;DHT22;64680;53.800;9.988;2023-11-19T11:21:52;10.10;99.90
75994;DHT22;64680;53.800;9.988;2023-11-19T11:25:10;10.30;99.90
75994;DHT22;64680;53.800;9.988;2023-11-19T11:27:53;10.30;99.90
75994;DHT22;64680;53.800;9.988;2023-11-19T11:30:31;10.30;99.90
75994;DHT22;64680;53.800;9.988;2023-11-19T11:36:03;10.30;99.90
75994;DHT22;64680;53.800;9.988;2023-11-19T11:38:36;10.30;99.90
75994;DHT22;64680;53.800;9.988;2023-11-19T11:41:21;10.20;99.90
75994;DHT22;64680;53.800;9.988;2023-11-19T11:49:04;10.30;99.90
75994;DHT22;64680;53.800;9.988;2023-11-19T11:52:00;10.30;99.90
75994;DHT22;64680;53.800;9.988;2023-11-19T11:54:29;10.30;99.90
75994;DHT22;64680;53.800;9.988;2023-11-19T11:57:12;10.30;99.90
75994;DHT22;64680;53.800;9.988;2023-11-19T12:02:15;10.40;99.90
75994;DHT22;64680;53.800;9.988;2023-11-19T12:04:42;10.40;99.90
75994;DHT22;64680;53.800;9.988;2023-11-19T12:07:21;10.40;99.90
75994;DHT22;64680;53.800;9.988;2023-11-19T12:10:05;10.40;99.90
75994;DHT22;64680;53.800;9.988;2023-11-19T12:12:32;10.40;99.90
75994;DHT22;64680;53.800;9.988;2023-11-19T12:20:06;10.20;99.90
75994;DHT22;64680;53.800;9.988;2023-11-19T12:22:38;10.30;99.90
75994;DHT22;64680;53.800;9.988;2023-11-19T12:25:06;10.40;99.90
75994;DHT22;64680;53.800;9.988;2023-11-19T12:27:33;10.40;99.90
75994;DHT22;64680;53.800;9.988;2023-11-19T12:30:02;10.50;99.90
75994;DHT22;64680;53.800;9.988;2023-11-19T12:32:51;10.40;99.40
75994;DHT22;64680;53.800;9.988;2023-11-19T12:35:19;10.40;99.90
75994;DHT22;64680;53.800;9.988;2023-11-19T12:37:47;10.40;99.90
75994;DHT22;64680;53.800;9.988;2023-11-19T12:40:22;10.40;99.90
75994;DHT22;64680;53.800;9.988;2023-11-19T12:42:49;10.40;99.90
75994;DHT22;64680;53.800;9.988;2023-11-19T12:45:15;10.40;99.90
75994;DHT22;64680;53.800;9.988;2023-11-19T12:47:42;10.50;99.90
75994;DHT22;64680;53.800;9.988;2023-11-19T12:50:09;10.50;99.90
75994;DHT22;64680;53.800;9.988;2023-11-19T12:52:36;10.60;99.90
75994;DHT22;64680;53.800;9.988;2023-11-19T12:55:03;10.60;98.70
75994;DHT22;64680;53.800;9.988;2023-11-19T12:57:41;10.50;98.40
75994;DHT22;64680;53.800;9.988;2023-11-19T13:00:18;10.60;97.10
75994;DHT22;64680;53.800;9.988;2023-11-19T13:02:50;10.60;94.60
75994;DHT22;64680;53.800;9.988;2023-11-19T13:05:32;10.60;94.40
75994;DHT22;64680;53.800;9.988;2023-11-19T13:10:28;10.70;91.70
75994;DHT22;64680;53.800;9.988;2023-11-19T13:13:20;10.70;91.50
75994;DHT22;64680;53.800;9.988;2023-11-19T13:15:46;10.70;90.40
75994;DHT22;64680;53.800;9.988;2023-11-19T13:18:12;10.70;90.20
75994;DHT22;64680;53.800;9.988;2023-11-19T13:20:39;10.70;89.60
75994;DHT22;64680;53.800;9.988;2023-11-19T13:23:06;10.70;88.90
75994;DHT22;64680;53.800;9.988;2023-11-19T13:25:35;10.70;87.80
75994;DHT22;64680;53.800;9.988;2023-11-19T13:28:01;10.60;87.40
75994;DHT22;64680;53.800;9.988;2023-11-19T13:30:27;10.60;86.60
75994;DHT22;64680;53.800;9.988;2023-11-19T13:32:54;10.60;87.40
75994;DHT22;64680;53.800;9.988;2023-11-19T13:35:21;10.50;90.00
75994;DHT22;64680;53.800;9.988;2023-11-19T13:37:47;10.50;90.80
75994;DHT22;64680;53.800;9.988;2023-11-19T13:40:14;10.50;90.30
75994;DHT22;64680;53.800;9.988;2023-11-19T13:42:41;10.50;91.90
75994;DHT22;64680;53.800;9.988;2023-11-19T13:45:11;10.50;92.70
75994;DHT22;64680;53.800;9.988;2023-11-19T13:47:45;10.50;92.00
75994;DHT22;64680;53.800;9.988;2023-11-19T13:50:13;10.60;90.00
75994;DHT22;64680;53.800;9.988;2023-11-19T13:52:39;10.50;88.30
75994;DHT22;64680;53.800;9.988;2023-11-19T13:55:07;10.50;89.80
75994;DHT22;64680;53.800;9.988;2023-11-19T13:57:37;10.50;90.30
75994;DHT22;64680;53.800;9.988;2023-11-19T14:00:03;10.40;91.30
75994;DHT22;64680;53.800;9.988;2023-11-19T14:02:35;10.40;91.60
75994;DHT22;64680;53.800;9.988;2023-11-19T14:05:01;10.40;91.90
75994;DHT22;64680;53.800;9.988;2023-11-19T14:07:27;10.40;90.00
75994;DHT22;64680;53.800;9.988;2023-11-19T14:09:53;10.40;90.90
75994;DHT22;64680;53.800;9.988;2023-11-19T14:12:19;10.30;93.40
75994;DHT22;64680;53.800;9.988;2023-11-19T14:14:45;10.20;97.20
75994;DHT22;64680;53.800;9.988;2023-11-19T14:17:10;10.20;98.50
75994;DHT22;64680;53.800;9.988;2023-11-19T14:19:36;10.20;99.90
75994;DHT22;64680;53.800;9.988;2023-11-19T14:22:03;10.10;99.90
75994;DHT22;64680;53.800;9.988;2023-11-19T14:24:29;10.10;99.90
75994;DHT22;64680;53.800;9.988;2023-11-19T14:26:54;10.10;99.90
75994;DHT22;64680;53.800;9.988;2023-11-19T14:29:23;10.00;99.90
75994;DHT22;64680;53.800;9.988;2023-11-19T14:31:49;10.00;99.90
75994;DHT22;64680;53.800;9.988;2023-11-19T14:34:14;9.90;99.90
75994;DHT22;64680;53.800;9.988;2023-11-19T14:36:41;9.90;99.90
75994;DHT22;64680;53.800;9.988;2023-11-19T14:39:06;9.90;99.90
75994;DHT22;64680;53.800;9.988;2023-11-19T14:41:32;9.90;99.90
75994;DHT22;64680;53.800;9.988;2023-11-19T14:43:58;9.90;99.90
75994;DHT22;64680;53.800;9.988;2023-11-19T14:46:23;9.80;99.90
75994;DHT22;64680;53.800;9.988;2023-11-19T14:48:49;9.80;99.90
75994;DHT22;64680;53.800;9.988;2023-11-19T14:51:14;9.80;99.90
75994;DHT22;64680;53.800;9.988;2023-11-19T14:53:40;9.70;99.90
75994;DHT22;64680;53.800;9.988;2023-11-19T14:56:09;9.70;99.90
75994;DHT22;64680;53.800;9.988;2023-11-19T14:58:35;9.70;99.90
75994;DHT22;64680;53.800;9.988;2023-11-19T15:01:01;9.70;99.90
75994;DHT22;64680;53.800;9.988;2023-11-19T15:03:29;9.60;99.90
75994;DHT22;64680;53.800;9.988;2023-11-19T15:05:56;9.60;99.90
75994;DHT22;64680;53.800;9.988;2023-11-19T15:08:21;9.50;99.90
75994;DHT22;64680;53.800;9.988;2023-11-19T15:10:47;9.50;99.90
75994;DHT22;64680;53.800;9.988;2023-11-19T15:13:13;9.40;99.60
75994;DHT22;64680;53.800;9.988;2023-11-19T15:15:38;9.30;95.40
75994;DHT22;64680;53.800;9.988;2023-11-19T15:18:04;9.20;95.80
75994;DHT22;64680;53.800;9.988;2023-11-19T15:20:30;9.10;96.10
75994;DHT22;64680;53.800;9.988;2023-11-19T15:22:57;9.10;95.70
75994;DHT22;64680;53.800;9.988;2023-11-19T15:25:22;9.00;96.60
75994;DHT22;64680;53.800;9.988;2023-11-19T15:27:48;8.90;96.60
75994;DHT22;64680;53.800;9.988;2023-11-19T15:30:14;8.80;97.30
75994;DHT22;64680;53.800;9.988;2023-11-19T15:32:41;8.80;99.10
75994;DHT22;64680;53.800;9.988;2023-11-19T15:35:11;8.80;99.90
75994;DHT22;64680;53.800;9.988;2023-11-19T15:37:37;8.70;99.90
75994;DHT22;64680;53.800;9.988;2023-11-19T15:40:09;8.70;99.90
75994;DHT22;64680;53.800;9.988;2023-11-19T15:42:35;8.70;99.90
75994;DHT22;64680;53.800;9.988;2023-11-19T15:45:01;8.70;99.90
75994;DHT22;64680;53.800;9.988;2023-11-19T15:47:30;8.70;99.90
75994;DHT22;64680;53.800;9.988;2023-11-19T15:49:56;8.70;99.90
75994;DHT22;64680;53.800;9.988;2023-11-19T15:52:21;8.70;99.90
75994;DHT22;64680;53.800;9.988;2023-11-19T15:54:47;8.70;99.90
75994;DHT22;64680;53.800;9.988;2023-11-19T15:57:13;8.80;99.90
75994;DHT22;64680;53.800;9.988;2023-11-19T15:59:38;8.80;99.90